createdAt,value
2017-10-05T00:02:02.487Z,96011.22
2017-10-05T00:04:31.571Z,96011.16
2017-10-05T00:07:00.618Z,96010.77
2017-10-05T00:09:29.658Z,96007.70
2017-10-05T00:11:58.855Z,96007.21
2017-10-05T00:14:28.043Z,95999.16
2017-10-05T00:16:57.075Z,95992.87
2017-10-05T00:19:26.110Z,95991.92
2017-10-05T00:21:55.209Z,95989.64
2017-10-05T00:24:24.283Z,95992.23
2017-10-05T00:26:53.316Z,95985.36
2017-10-05T00:29:22.364Z,95989.07
2017-10-05T00:31:51.423Z,95987.49
2017-10-05T00:34:20.450Z,95986.97
2017-10-05T00:36:49.494Z,95979.26
2017-10-05T00:39:18.541Z,95977.30
2017-10-05T00:41:47.584Z,95975.42
2017-10-05T00:44:16.643Z,95966.41
2017-10-05T00:46:45.674Z,95962.89
2017-10-05T00:49:14.716Z,95952.76
2017-10-05T00:51:44.759Z,95945.30
2017-10-05T00:54:13.823Z,95942.53
2017-10-05T00:56:42.866Z,95939.74
2017-10-05T00:59:11.926Z,95935.79
2017-10-05T01:01:42.014Z,95936.48
2017-10-05T01:04:11.044Z,95927.52
2017-10-05T01:06:40.110Z,95924.40
2017-10-05T01:09:09.130Z,95918.39
2017-10-05T01:11:38.242Z,95905.26
2017-10-05T01:14:07.294Z,95901.66
2017-10-05T01:16:36.326Z,95899.72
2017-10-05T01:19:05.374Z,95897.16
2017-10-05T01:21:34.406Z,95893.45
2017-10-05T01:24:03.450Z,95890.44
2017-10-05T01:26:32.514Z,95888.25
2017-10-05T01:29:01.577Z,95884.85
2017-10-05T01:31:31.415Z,95881.69
2017-10-05T01:34:00.480Z,95870.24
2017-10-05T01:36:29.514Z,95872.50
2017-10-05T01:38:58.556Z,95870.13
2017-10-05T01:41:27.602Z,95863.89
2017-10-05T01:43:56.670Z,95856.73
2017-10-05T01:46:25.743Z,95852.37
2017-10-05T01:48:54.774Z,95845.97
2017-10-05T01:51:23.834Z,95846.73
2017-10-05T01:53:52.871Z,95846.18
2017-10-05T01:56:21.907Z,95840.97
2017-10-05T01:58:50.969Z,95835.52
2017-10-05T02:01:20.030Z,95835.84
2017-10-05T02:03:49.070Z,95828.94
2017-10-05T02:06:18.130Z,95827.24
2017-10-05T02:08:47.151Z,95825.02
2017-10-05T02:11:16.203Z,95827.33
2017-10-05T02:13:45.284Z,95826.58
2017-10-05T02:16:14.450Z,95820.91
2017-10-05T02:18:43.486Z,95809.36
2017-10-05T02:21:12.536Z,95795.30
2017-10-05T02:23:41.591Z,95793.00
2017-10-05T02:26:10.623Z,95781.94
2017-10-05T02:28:39.665Z,95779.80
2017-10-05T02:31:08.719Z,95780.45
2017-10-05T02:33:37.766Z,95776.41
2017-10-05T02:36:07.717Z,95772.09
2017-10-05T02:38:36.760Z,95765.52
2017-10-05T02:41:05.803Z,95767.92
2017-10-05T02:43:34.865Z,95765.84
2017-10-05T02:46:03.908Z,95762.42
2017-10-05T02:48:32.991Z,95769.97
2017-10-05T02:51:02.037Z,95764.94
2017-10-05T02:53:31.082Z,95768.56
2017-10-05T02:56:00.129Z,95766.73
2017-10-05T02:58:29.166Z,95757.78
2017-10-05T03:00:58.214Z,95753.77
2017-10-05T03:03:27.353Z,95753.58
2017-10-05T03:05:56.406Z,95748.52
2017-10-05T03:08:25.482Z,95746.72
2017-10-05T03:10:54.539Z,95741.03
2017-10-05T03:13:23.603Z,95734.63
2017-10-05T03:15:52.634Z,95727.46
2017-10-05T03:18:21.694Z,95728.53
2017-10-05T03:20:50.729Z,95717.70
2017-10-05T03:23:19.779Z,95708.38
2017-10-05T03:25:48.820Z,95696.20
2017-10-05T03:28:17.858Z,95693.88
2017-10-05T03:30:46.902Z,95685.84
2017-10-05T03:33:15.942Z,95681.58
2017-10-05T03:35:45.143Z,95677.98
2017-10-05T03:38:14.207Z,95671.64
2017-10-05T03:40:43.243Z,95665.91
2017-10-05T03:43:12.316Z,95658.80
2017-10-05T03:45:41.362Z,95657.80
2017-10-05T03:48:10.524Z,95652.11
2017-10-05T03:50:40.552Z,95651.26
2017-10-05T03:53:09.619Z,95654.47
2017-10-05T03:55:38.700Z,95651.75
2017-10-05T03:58:07.749Z,95643.66
2017-10-05T04:00:36.778Z,95635.08
2017-10-05T04:03:05.827Z,95627.41
2017-10-05T04:05:34.870Z,95623.64
2017-10-05T04:08:03.922Z,95615.91
2017-10-05T04:10:32.950Z,95607.09
2017-10-05T04:13:01.999Z,95602.08
2017-10-05T04:15:31.046Z,95593.73
2017-10-05T04:18:00.095Z,95596.27
2017-10-05T04:20:29.163Z,95596.78
2017-10-05T04:22:58.202Z,95592.17
2017-10-05T04:25:27.250Z,95592.96
2017-10-05T04:27:56.299Z,95587.48
2017-10-05T04:30:25.341Z,95587.31
2017-10-05T04:32:54.383Z,95585.05
2017-10-05T04:35:23.435Z,95575.77
2017-10-05T04:37:52.512Z,95578.14
2017-10-05T04:40:21.558Z,95578.02
2017-10-05T04:42:50.582Z,95571.91
2017-10-05T04:45:19.631Z,95570.92
2017-10-05T04:47:49.484Z,95566.53
2017-10-05T04:50:24.308Z,95561.13
2017-10-05T04:52:58.746Z,95557.45
2017-10-05T04:55:29.364Z,95548.88
2017-10-05T04:57:58.999Z,95550.02
2017-10-05T05:00:28.310Z,95546.77
2017-10-05T05:02:57.357Z,95543.55
2017-10-05T05:05:27.190Z,95540.41
2017-10-05T05:07:56.249Z,95532.31
2017-10-05T05:10:25.298Z,95538.78
2017-10-05T05:12:54.370Z,95534.20
2017-10-05T05:15:23.419Z,95533.63
2017-10-05T05:17:52.477Z,95530.99
2017-10-05T05:20:23.506Z,95534.67
2017-10-05T05:22:52.574Z,95537.20
2017-10-05T05:25:21.616Z,95533.95
2017-10-05T05:27:50.681Z,95531.02
2017-10-05T05:30:19.732Z,95528.75
2017-10-05T05:32:48.766Z,95521.45
2017-10-05T05:35:17.878Z,95522.97
2017-10-05T05:37:46.915Z,95520.92
2017-10-05T05:40:15.951Z,95521.42
2017-10-05T05:42:44.998Z,95515.98
2017-10-05T05:45:14.044Z,95513.08
2017-10-05T05:47:43.172Z,95512.21
2017-10-05T05:50:12.214Z,95508.27
2017-10-05T05:52:41.265Z,95511.38
2017-10-05T05:55:10.353Z,95504.33
2017-10-05T05:57:39.391Z,95508.23
2017-10-05T06:00:08.459Z,95512.48
2017-10-05T06:02:37.513Z,95511.08
2017-10-05T06:05:06.608Z,95502.36
2017-10-05T06:07:35.694Z,95499.56
2017-10-05T06:10:04.827Z,95494.77
2017-10-05T06:12:33.848Z,95491.28
2017-10-05T06:15:02.904Z,95493.88
2017-10-05T06:17:31.978Z,95489.56
2017-10-05T06:20:01.018Z,95486.61
2017-10-05T06:22:30.075Z,95489.83
2017-10-05T06:24:59.127Z,95486.30
2017-10-05T06:27:28.180Z,95481.91
2017-10-05T06:29:57.212Z,95480.78
2017-10-05T06:32:26.269Z,95473.25
2017-10-05T06:34:55.314Z,95471.23
2017-10-05T06:37:24.473Z,95472.64
2017-10-05T06:39:53.540Z,95461.80
2017-10-05T06:42:22.570Z,95465.77
2017-10-05T06:44:51.647Z,95461.25
2017-10-05T06:47:20.689Z,95459.14
2017-10-05T06:49:49.728Z,95459.50
2017-10-05T06:52:18.771Z,95459.45
2017-10-05T06:54:55.570Z,95468.39
2017-10-05T06:57:36.317Z,95459.33
2017-10-05T07:00:13.134Z,95456.08
2017-10-05T07:02:49.640Z,95452.04
2017-10-05T07:05:26.401Z,95454.84
2017-10-05T07:08:03.075Z,95454.70
2017-10-05T07:10:38.667Z,95454.92
2017-10-05T07:13:14.002Z,95454.59
2017-10-05T07:15:50.239Z,95456.13
2017-10-05T07:18:28.115Z,95448.23
2017-10-05T07:21:05.893Z,95448.88
2017-10-05T07:23:42.110Z,95448.47
2017-10-05T07:26:17.938Z,95452.98
2017-10-05T07:28:53.787Z,95445.30
2017-10-05T07:31:28.531Z,95439.01
2017-10-05T07:34:04.194Z,95435.45
2017-10-05T07:36:43.002Z,95440.03
2017-10-05T07:39:20.937Z,95437.61
2017-10-05T07:41:55.857Z,95445.92
2017-10-05T07:47:12.883Z,95432.57
2017-10-05T07:49:43.070Z,95435.75
2017-10-05T07:52:12.155Z,95431.55
2017-10-05T07:54:41.190Z,95432.20
2017-10-05T07:57:10.295Z,95423.84
2017-10-05T07:59:39.346Z,95432.76
2017-10-05T08:02:08.396Z,95415.41
2017-10-05T08:04:37.444Z,95397.52
2017-10-05T08:07:06.491Z,95405.54
2017-10-05T08:09:35.563Z,95419.38
2017-10-05T08:12:04.607Z,95396.06
2017-10-05T08:14:33.646Z,95401.61
2017-10-05T08:17:02.702Z,95398.27
2017-10-05T08:19:31.742Z,95387.88
2017-10-05T08:22:00.783Z,95390.10
2017-10-05T08:24:29.841Z,95377.30
2017-10-05T08:26:58.878Z,95375.83
2017-10-05T08:29:27.996Z,95370.92
2017-10-05T08:31:57.034Z,95360.38
2017-10-05T08:34:26.078Z,95358.56
2017-10-05T08:36:55.153Z,95351.79
2017-10-05T08:39:24.211Z,95363.53
2017-10-05T08:41:53.239Z,95367.84
2017-10-05T08:44:22.296Z,95368.55
2017-10-05T08:46:51.322Z,95363.58
2017-10-05T08:49:20.381Z,95356.23
2017-10-05T08:51:49.430Z,95352.97
2017-10-05T08:54:18.466Z,95353.46
2017-10-05T08:56:47.506Z,95357.59
2017-10-05T08:59:16.586Z,95346.09
2017-10-05T09:01:45.651Z,95341.42
2017-10-05T09:04:14.679Z,95350.39
2017-10-05T09:06:43.718Z,95345.49
2017-10-05T09:09:12.779Z,95339.98
2017-10-05T09:11:41.907Z,95330.98
2017-10-05T09:14:10.935Z,95332.70
2017-10-05T09:16:39.966Z,95338.86
2017-10-05T09:19:09.018Z,95320.83
2017-10-05T09:21:38.098Z,95336.17
2017-10-05T09:24:07.146Z,95314.35
2017-10-05T09:26:36.189Z,95330.25
2017-10-05T09:29:05.240Z,95323.70
2017-10-05T09:31:34.285Z,95315.66
2017-10-05T09:34:03.342Z,95321.27
2017-10-05T09:36:32.398Z,95306.95
2017-10-05T09:39:01.476Z,95329.08
2017-10-05T09:41:30.532Z,95317.72
2017-10-05T09:43:59.584Z,95307.61
2017-10-05T09:46:28.630Z,95296.56
2017-10-05T09:48:57.678Z,95308.40
2017-10-05T09:51:26.732Z,95283.23
2017-10-05T09:53:55.775Z,95300.77
2017-10-05T09:56:24.806Z,95273.66
2017-10-05T09:58:53.988Z,95286.06
2017-10-05T10:01:23.035Z,95267.55
2017-10-05T10:03:52.083Z,95280.58
2017-10-05T10:06:21.139Z,95267.98
2017-10-05T10:08:50.183Z,95276.42
2017-10-05T10:11:19.227Z,95278.13
2017-10-05T10:13:48.267Z,95277.30
2017-10-05T10:16:17.313Z,95281.31
2017-10-05T10:18:46.363Z,95275.88
2017-10-05T10:21:15.412Z,95270.89
2017-10-05T10:23:44.455Z,95256.62
2017-10-05T10:26:13.515Z,95256.75
2017-10-05T10:28:42.614Z,95257.65
2017-10-05T10:31:11.697Z,95257.34
2017-10-05T10:33:40.730Z,95253.78
2017-10-05T10:36:09.770Z,95259.14
2017-10-05T10:38:38.819Z,95249.62
2017-10-05T10:41:07.869Z,95247.31
2017-10-05T10:43:36.938Z,95230.75
2017-10-05T10:46:05.973Z,95232.63
2017-10-05T10:48:35.025Z,95245.08
2017-10-05T10:51:04.063Z,95228.67
2017-10-05T10:53:33.102Z,95233.78
2017-10-05T10:56:02.165Z,95237.91
2017-10-05T10:58:31.236Z,95227.64
2017-10-05T11:01:00.298Z,95220.48
2017-10-05T11:03:29.330Z,95245.37
2017-10-05T11:05:58.391Z,95241.83
2017-10-05T11:08:27.474Z,95223.64
2017-10-05T11:10:56.531Z,95222.10
2017-10-05T11:13:25.586Z,95207.14
2017-10-05T11:15:54.656Z,95202.98
2017-10-05T11:18:23.822Z,95196.09
2017-10-05T11:20:52.902Z,95193.91
2017-10-05T11:23:21.942Z,95200.21
2017-10-05T11:25:51.003Z,95199.59
2017-10-05T11:28:20.052Z,95173.42
2017-10-05T11:30:49.095Z,95185.02
2017-10-05T11:33:18.171Z,95166.33
2017-10-05T11:35:47.206Z,95199.08
2017-10-05T11:38:16.239Z,95183.02
2017-10-05T11:40:45.305Z,95177.64
2017-10-05T11:43:14.330Z,95166.17
2017-10-05T11:45:43.383Z,95153.27
2017-10-05T11:48:12.426Z,95149.60
2017-10-05T11:50:41.479Z,95131.73
2017-10-05T11:53:10.581Z,95128.55
2017-10-05T11:55:39.634Z,95150.44
2017-10-05T11:58:08.682Z,95129.97
2017-10-05T12:00:38.747Z,95113.94
2017-10-05T12:03:08.075Z,95107.74
2017-10-05T12:05:37.123Z,95125.75
2017-10-05T12:08:06.171Z,95122.17
2017-10-05T12:10:35.259Z,95118.08
2017-10-05T12:13:04.290Z,95110.27
2017-10-05T12:15:33.328Z,95123.05
2017-10-05T12:18:02.382Z,95104.39
2017-10-05T12:20:31.500Z,95102.03
2017-10-05T12:23:00.636Z,95062.61
2017-10-05T12:25:29.683Z,95089.12
2017-10-05T12:27:58.735Z,95066.69
2017-10-05T12:30:27.834Z,95098.89
2017-10-05T12:32:56.916Z,95072.72
2017-10-05T12:35:25.987Z,95073.30
2017-10-05T12:37:55.037Z,95068.31
2017-10-05T12:40:24.177Z,95064.06
2017-10-05T12:42:53.216Z,95064.49
2017-10-05T12:45:22.242Z,95053.81
2017-10-05T12:47:51.283Z,95056.22
2017-10-05T12:50:20.334Z,95043.33
2017-10-05T12:52:49.412Z,95044.01
2017-10-05T12:55:18.458Z,95054.98
2017-10-05T12:57:47.577Z,95038.56
2017-10-05T13:00:16.626Z,95044.25
2017-10-05T13:02:45.674Z,95027.00
2017-10-05T13:05:14.722Z,95047.36
2017-10-05T13:07:43.788Z,95031.09
2017-10-05T13:10:12.877Z,95052.53
2017-10-05T13:12:41.922Z,95031.60
2017-10-05T13:15:11.013Z,95011.61
2017-10-05T13:17:40.062Z,95019.67
2017-10-05T13:20:10.287Z,95001.95
2017-10-05T13:22:39.323Z,95015.09
2017-10-05T13:25:08.371Z,94992.55
2017-10-05T13:27:37.610Z,95008.08
2017-10-05T13:30:06.714Z,94994.30
2017-10-05T13:32:35.763Z,94987.82
2017-10-05T13:35:04.793Z,94978.19
2017-10-05T13:37:33.848Z,94960.15
2017-10-05T13:40:03.962Z,94957.27
2017-10-05T13:42:33.036Z,94940.80
2017-10-05T13:45:02.062Z,94931.87
2017-10-05T13:47:31.117Z,94928.81
2017-10-05T13:50:00.154Z,95000.17
2017-10-05T13:52:29.234Z,94959.00
2017-10-05T13:54:58.302Z,94958.61
2017-10-05T13:57:27.355Z,94967.16
2017-10-05T13:59:56.398Z,94955.47
2017-10-05T14:02:25.690Z,94954.46
2017-10-05T14:04:54.744Z,94954.31
2017-10-05T14:07:24.385Z,94967.17
2017-10-05T14:09:53.442Z,94974.45
2017-10-05T14:12:22.498Z,94967.00
2017-10-05T14:14:51.566Z,94958.70
2017-10-05T14:17:21.812Z,94952.11
2017-10-05T14:19:50.859Z,94944.72
2017-10-05T14:22:19.902Z,94938.36
2017-10-05T14:24:48.962Z,94947.53
2017-10-05T14:27:18.002Z,94956.44
2017-10-05T14:29:47.050Z,94950.92
2017-10-05T14:32:16.087Z,94936.64
2017-10-05T14:34:45.139Z,94945.47
2017-10-05T14:37:14.186Z,94928.95
2017-10-05T14:39:44.298Z,94952.22
2017-10-05T14:42:13.313Z,94932.87
2017-10-05T14:44:42.393Z,94936.22
2017-10-05T14:47:11.439Z,94982.66
2017-10-05T14:49:40.487Z,94942.83
2017-10-05T14:52:09.550Z,94947.56
2017-10-05T14:54:38.590Z,94968.78
2017-10-05T14:57:07.676Z,94935.45
2017-10-05T14:59:36.750Z,94929.90
2017-10-05T15:02:05.771Z,94948.17
2017-10-05T15:04:34.810Z,94949.80
2017-10-05T15:07:03.860Z,94954.98
2017-10-05T15:09:32.911Z,94967.66
2017-10-05T15:12:01.967Z,94955.14
2017-10-05T15:14:31.145Z,94950.64
2017-10-05T15:17:00.240Z,94945.17
2017-10-05T15:19:29.274Z,94953.55
2017-10-05T15:21:58.332Z,94948.61
2017-10-05T15:24:27.421Z,94953.95
2017-10-05T15:26:56.494Z,94946.36
2017-10-05T15:29:25.553Z,94969.16
2017-10-05T15:31:54.597Z,94957.15
2017-10-05T15:34:23.655Z,94964.31
2017-10-05T15:36:52.729Z,94968.14
2017-10-05T15:39:22.447Z,94972.30
2017-10-05T15:41:51.510Z,94963.52
2017-10-05T15:44:20.551Z,94986.64
2017-10-05T15:46:49.607Z,94970.37
2017-10-05T15:49:18.692Z,94977.47
2017-10-05T15:51:47.771Z,94985.48
2017-10-05T15:54:16.797Z,94991.53
2017-10-05T15:56:45.846Z,95003.14
2017-10-05T15:59:16.660Z,95003.48
2017-10-05T16:01:45.694Z,95001.11
2017-10-05T16:04:14.941Z,94998.36
2017-10-05T16:06:44.334Z,95010.30
2017-10-05T16:09:15.543Z,95008.30
2017-10-05T16:11:45.721Z,95025.72
2017-10-05T16:14:14.780Z,95028.47
2017-10-05T16:16:43.835Z,95029.22
2017-10-05T16:19:12.892Z,95029.38
2017-10-05T16:21:41.952Z,95040.08
2017-10-05T16:24:11.003Z,95038.97
2017-10-05T16:26:40.046Z,95047.43
2017-10-05T16:29:09.093Z,95050.97
2017-10-05T16:31:38.144Z,95030.69
2017-10-05T16:34:07.182Z,95032.58
2017-10-05T16:36:36.255Z,95039.08
2017-10-05T16:39:05.304Z,95040.11
2017-10-05T16:41:34.490Z,95052.01
2017-10-05T16:44:03.552Z,95059.86
2017-10-05T16:46:32.589Z,95049.66
2017-10-05T16:49:01.659Z,95045.59
2017-10-05T16:51:30.737Z,95052.69
2017-10-05T16:53:59.766Z,95054.13
2017-10-05T16:56:28.818Z,95058.47
2017-10-05T16:58:57.929Z,95059.28
2017-10-05T17:01:27.001Z,95062.04
2017-10-05T17:03:56.050Z,95063.17
2017-10-05T17:06:25.404Z,95067.13
2017-10-05T17:08:54.923Z,95076.02
2017-10-05T17:11:24.018Z,95079.34
2017-10-05T17:13:53.435Z,95097.19
2017-10-05T17:16:22.487Z,95095.13
2017-10-05T17:18:51.710Z,95102.94
2017-10-05T17:21:20.905Z,95102.45
2017-10-05T17:23:49.942Z,95114.20
2017-10-05T17:26:19.094Z,95112.94
2017-10-05T17:28:48.125Z,95126.06
2017-10-05T17:31:17.543Z,95133.07
2017-10-05T17:33:47.494Z,95138.20
2017-10-05T17:36:16.542Z,95146.70
2017-10-05T17:38:45.583Z,95150.96
2017-10-05T17:41:14.629Z,95158.59
2017-10-05T17:43:44.254Z,95171.97
2017-10-05T17:46:13.331Z,95169.70
2017-10-05T17:48:42.390Z,95172.80
2017-10-05T17:51:11.465Z,95176.31
2017-10-05T17:53:40.529Z,95190.02
2017-10-05T17:56:09.654Z,95188.84
2017-10-05T17:58:38.679Z,95200.70
2017-10-05T18:01:07.776Z,95194.27
2017-10-05T18:03:36.827Z,95205.69
2017-10-05T18:06:05.981Z,95215.56
2017-10-05T18:08:35.194Z,95225.86
2017-10-05T18:11:04.293Z,95230.00
2017-10-05T18:13:33.393Z,95228.07
2017-10-05T18:16:02.434Z,95233.94
2017-10-05T18:18:31.487Z,95246.19
2017-10-05T18:21:00.538Z,95240.56
2017-10-05T18:23:32.689Z,95250.34
2017-10-05T18:26:01.795Z,95231.95
2017-10-05T18:28:30.963Z,95232.07
2017-10-05T18:31:00.247Z,95235.38
2017-10-05T18:33:29.449Z,95243.44
2017-10-05T18:35:58.538Z,95250.81
2017-10-05T18:38:27.712Z,95259.73
2017-10-05T18:40:57.020Z,95262.90
2017-10-05T18:43:26.404Z,95253.65
2017-10-05T18:45:55.451Z,95260.82
2017-10-05T18:48:24.595Z,95259.78
2017-10-05T18:50:53.635Z,95260.52
2017-10-05T18:53:22.680Z,95262.24
2017-10-05T18:55:51.729Z,95260.24
2017-10-05T18:58:20.882Z,95264.86
2017-10-05T19:00:49.954Z,95266.86
2017-10-05T19:03:18.998Z,95273.24
2017-10-05T19:05:48.069Z,95288.75
2017-10-05T19:08:17.274Z,95286.31
2017-10-05T19:10:46.343Z,95286.73
2017-10-05T19:13:15.391Z,95284.70
2017-10-05T19:15:44.482Z,95293.86
2017-10-05T19:18:13.591Z,95301.78
2017-10-05T19:20:42.675Z,95315.31
2017-10-05T19:23:12.552Z,95327.16
2017-10-05T19:25:41.743Z,95365.65
2017-10-05T19:28:10.880Z,95373.27
2017-10-05T19:30:39.961Z,95368.73
2017-10-05T19:33:09.022Z,95380.99
2017-10-05T19:35:38.072Z,95370.28
2017-10-05T19:38:07.116Z,95375.27
2017-10-05T19:40:41.846Z,95381.30
2017-10-05T19:43:16.956Z,95383.84
2017-10-05T19:45:51.212Z,95395.40
2017-10-05T19:48:20.763Z,95404.05
2017-10-05T19:50:49.800Z,95403.72
2017-10-05T19:53:18.947Z,95403.55
2017-10-05T19:55:48.097Z,95404.10
2017-10-05T19:58:17.172Z,95394.11
2017-10-05T20:00:46.204Z,95401.83
2017-10-05T20:03:15.247Z,95408.02
2017-10-05T20:05:44.371Z,95414.68
2017-10-05T20:08:13.475Z,95408.41
2017-10-05T20:10:42.523Z,95407.99
2017-10-05T20:13:12.162Z,95420.81
2017-10-05T20:15:41.196Z,95422.36
2017-10-05T20:18:12.667Z,95435.36
2017-10-05T20:20:47.212Z,95434.33
2017-10-05T20:26:24.780Z,95439.78
2017-10-05T20:29:00.851Z,95434.13
2017-10-05T20:34:24.477Z,95445.65
2017-10-05T20:36:53.516Z,95450.55
2017-10-05T20:39:22.561Z,95447.32
2017-10-05T20:41:52.522Z,95449.50
2017-10-05T20:44:21.603Z,95436.77
2017-10-05T20:46:50.705Z,95435.48
2017-10-05T20:49:19.752Z,95438.97
2017-10-05T20:51:48.787Z,95453.05
2017-10-05T20:54:19.691Z,95451.09
2017-10-05T20:56:48.735Z,95450.70
2017-10-05T20:59:17.985Z,95467.70
2017-10-05T21:01:47.136Z,95477.77
2017-10-05T21:04:17.159Z,95480.58
2017-10-05T21:06:46.180Z,95473.25
2017-10-05T21:09:16.778Z,95484.48
2017-10-05T21:11:47.903Z,95489.79
2017-10-05T21:14:17.689Z,95486.09
2017-10-05T21:16:46.770Z,95487.39
2017-10-05T21:19:15.851Z,95483.53
2017-10-05T21:21:44.895Z,95487.46
2017-10-05T21:24:13.933Z,95483.84
2017-10-05T21:26:43.521Z,95481.92
2017-10-05T21:29:13.118Z,95492.26
2017-10-05T21:31:42.887Z,95486.31
2017-10-05T21:34:12.490Z,95488.31
2017-10-05T21:36:43.075Z,95490.29
2017-10-05T21:39:12.115Z,95494.11
2017-10-05T21:41:41.183Z,95507.83
2017-10-05T21:44:10.279Z,95501.08
2017-10-05T21:46:39.313Z,95507.27
2017-10-05T21:49:08.353Z,95502.56
2017-10-05T21:51:37.390Z,95488.31
2017-10-05T21:54:06.432Z,95476.06
2017-10-05T21:56:41.308Z,95476.92
2017-10-05T21:59:16.758Z,95499.19
2017-10-05T22:01:46.358Z,95487.63
2017-10-05T22:04:15.402Z,95465.70
2017-10-05T22:06:44.466Z,95483.80
2017-10-05T22:09:13.499Z,95489.50
2017-10-05T22:11:42.555Z,95492.72
2017-10-05T22:14:11.627Z,95504.91
2017-10-05T22:16:40.661Z,95520.33
2017-10-05T22:19:09.701Z,95542.11
2017-10-05T22:21:38.742Z,95538.48
2017-10-05T22:24:07.825Z,95534.35
2017-10-05T22:26:36.863Z,95546.62
2017-10-05T22:29:05.899Z,95550.00
2017-10-05T22:31:34.971Z,95533.41
2017-10-05T22:34:03.991Z,95534.41
2017-10-05T22:36:33.031Z,95511.44
2017-10-05T22:39:02.283Z,95515.61
2017-10-05T22:41:31.342Z,95502.58
2017-10-05T22:44:00.382Z,95490.89
2017-10-05T22:46:29.432Z,95529.78
2017-10-05T22:48:58.483Z,95560.12
2017-10-05T22:51:27.532Z,95533.56
2017-10-05T22:53:56.585Z,95517.56
2017-10-05T22:56:25.926Z,95490.29
2017-10-05T22:58:54.967Z,95501.78
2017-10-05T23:01:24.007Z,95491.42
2017-10-05T23:03:53.093Z,95526.58
2017-10-05T23:06:22.126Z,95539.23
2017-10-05T23:08:51.379Z,95546.19
2017-10-05T23:11:21.402Z,95553.18
2017-10-05T23:13:50.462Z,95560.27
2017-10-05T23:16:19.500Z,95541.84
2017-10-05T23:18:48.547Z,95526.18
2017-10-05T23:21:17.623Z,95529.55
2017-10-05T23:23:46.693Z,95542.08
2017-10-05T23:26:15.722Z,95550.67
2017-10-05T23:28:44.763Z,95538.55
2017-10-05T23:31:13.803Z,95534.48
2017-10-05T23:33:42.866Z,95543.23
2017-10-05T23:36:11.906Z,95556.83
2017-10-05T23:38:40.939Z,95570.95
2017-10-05T23:41:09.992Z,95590.15
2017-10-05T23:43:39.036Z,95604.30
2017-10-05T23:46:08.109Z,95604.36
2017-10-05T23:48:37.160Z,95605.80
2017-10-05T23:51:06.191Z,95604.58
2017-10-05T23:53:35.243Z,95599.69
2017-10-05T23:56:04.277Z,95600.84
2017-10-05T23:58:33.365Z,95597.13
